createdAt,value
2023-06-09T00:01:53.394Z,22.88
2023-06-09T00:04:20.058Z,25.08
2023-06-09T00:06:46.715Z,21.95
2023-06-09T00:09:13.586Z,24.27
2023-06-09T00:11:40.228Z,25.65
2023-06-09T00:14:06.605Z,22.40
2023-06-09T00:16:33.037Z,25.00
2023-06-09T00:18:59.381Z,25.02
2023-06-09T00:21:25.816Z,24.17
2023-06-09T00:23:52.462Z,23.65
2023-06-09T00:26:19.306Z,25.27
2023-06-09T00:28:45.830Z,23.70
2023-06-09T00:31:12.354Z,23.60
2023-06-09T00:33:38.829Z,26.13
2023-06-09T00:36:05.619Z,24.23
2023-06-09T00:38:32.004Z,26.48
2023-06-09T00:40:58.514Z,24.33
2023-06-09T00:43:24.901Z,23.75
2023-06-09T00:45:51.391Z,27.35
2023-06-09T00:48:17.859Z,27.58
2023-06-09T00:50:44.267Z,24.25
2023-06-09T00:53:12.254Z,26.98
2023-06-09T00:55:41.422Z,23.90
2023-06-09T00:58:09.397Z,23.67
2023-06-09T01:00:35.978Z,22.33
2023-06-09T01:03:03.522Z,23.45
2023-06-09T01:05:32.012Z,25.08
2023-06-09T01:08:26.184Z,23.50
2023-06-09T01:11:23.786Z,22.15
2023-06-09T01:14:02.615Z,23.88
2023-06-09T01:16:38.949Z,21.33
2023-06-09T01:19:11.994Z,25.38
2023-06-09T01:21:46.690Z,21.25
2023-06-09T01:24:32.877Z,23.00
2023-06-09T01:27:03.893Z,21.13
2023-06-09T01:29:32.574Z,19.23
2023-06-09T01:32:01.697Z,22.08
2023-06-09T01:34:29.048Z,21.38
2023-06-09T01:39:22.191Z,21.15
2023-06-09T01:41:48.587Z,21.52
2023-06-09T01:44:15.011Z,20.48
2023-06-09T01:46:42.405Z,23.52
2023-06-09T01:49:17.207Z,21.33
2023-06-09T01:51:53.667Z,21.08
2023-06-09T01:54:32.989Z,21.23
2023-06-09T01:57:07.221Z,21.13
2023-06-09T01:59:52.378Z,20.33
2023-06-09T02:02:20.787Z,22.60
2023-06-09T02:04:51.162Z,23.25
2023-06-09T02:07:18.326Z,22.45
2023-06-09T02:09:48.313Z,23.00
2023-06-09T02:12:14.796Z,22.88
2023-06-09T02:14:42.335Z,24.33
2023-06-09T02:17:09.288Z,25.33
2023-06-09T02:19:39.454Z,24.05
2023-06-09T02:22:07.094Z,23.25
2023-06-09T02:24:34.179Z,22.02
2023-06-09T02:27:00.542Z,21.17
2023-06-09T02:29:27.746Z,20.42
2023-06-09T02:31:59.777Z,20.10
2023-06-09T02:34:26.178Z,18.17
2023-06-09T02:36:52.678Z,18.08
2023-06-09T02:39:20.258Z,20.27
2023-06-09T02:41:47.007Z,18.02
2023-06-09T02:44:14.151Z,17.70
2023-06-09T02:46:40.790Z,18.65
2023-06-09T02:49:07.882Z,16.30
2023-06-09T02:51:34.340Z,18.27
2023-06-09T02:54:00.688Z,18.17
2023-06-09T02:56:27.057Z,17.20
2023-06-09T02:58:53.591Z,17.08
2023-06-09T03:01:21.082Z,19.38
2023-06-09T03:03:48.439Z,18.55
2023-06-09T03:06:15.276Z,19.35
2023-06-09T03:08:42.106Z,17.27
2023-06-09T03:11:08.721Z,17.55
2023-06-09T03:13:35.355Z,27.40
2023-06-09T03:16:01.798Z,20.30
2023-06-09T03:18:28.254Z,19.45
2023-06-09T03:20:54.936Z,18.67
2023-06-09T03:23:21.941Z,19.23
2023-06-09T03:25:49.008Z,19.55
2023-06-09T03:28:15.357Z,18.73
2023-06-09T03:30:41.783Z,19.58
2023-06-09T03:33:08.233Z,19.42
2023-06-09T03:35:34.596Z,19.52
2023-06-09T03:38:00.928Z,21.10
2023-06-09T03:40:27.318Z,20.27
2023-06-09T03:42:53.662Z,19.45
2023-06-09T03:45:19.973Z,18.50
2023-06-09T03:47:46.313Z,20.92
2023-06-09T03:50:12.890Z,18.75
2023-06-09T03:52:41.228Z,20.33
2023-06-09T03:55:08.203Z,22.23
2023-06-09T03:57:34.637Z,19.65
2023-06-09T04:00:01.063Z,21.80
2023-06-09T04:02:27.597Z,19.23
2023-06-09T04:04:54.005Z,20.88
2023-06-09T04:07:20.355Z,18.60
2023-06-09T04:09:46.722Z,20.60
2023-06-09T04:12:13.050Z,19.25
2023-06-09T04:14:39.533Z,18.33
2023-06-09T04:17:06.681Z,19.23
2023-06-09T04:19:33.069Z,18.45
2023-06-09T04:22:04.099Z,17.60
2023-06-09T04:24:30.430Z,18.05
2023-06-09T04:26:56.741Z,20.80
2023-06-09T04:29:23.207Z,18.33
2023-06-09T04:31:49.632Z,19.73
2023-06-09T04:34:16.072Z,19.55
2023-06-09T04:36:42.522Z,18.05
2023-06-09T04:39:09.412Z,15.98
2023-06-09T04:41:35.913Z,18.95
2023-06-09T04:44:02.376Z,16.67
2023-06-09T04:46:28.868Z,16.40
2023-06-09T04:48:55.246Z,19.33
2023-06-09T04:51:21.679Z,15.48
2023-06-09T04:53:48.008Z,17.88
2023-06-09T04:56:14.351Z,18.05
2023-06-09T04:58:40.950Z,17.13
2023-06-09T05:01:07.301Z,15.82
2023-06-09T05:03:33.672Z,17.65
2023-06-09T05:06:00.052Z,16.10
2023-06-09T05:08:26.390Z,17.17
2023-06-09T05:10:52.761Z,19.35
2023-06-09T05:13:19.857Z,17.42
2023-06-09T05:15:46.292Z,17.30
2023-06-09T05:18:12.625Z,19.27
2023-06-09T05:20:38.989Z,18.33
2023-06-09T05:23:05.354Z,18.42
2023-06-09T05:25:31.682Z,19.52
2023-06-09T05:27:58.019Z,16.88
2023-06-09T05:30:24.439Z,19.58
2023-06-09T05:32:50.832Z,18.27
2023-06-09T05:35:17.215Z,16.80
2023-06-09T05:37:51.159Z,19.45
2023-06-09T05:40:19.472Z,17.58
2023-06-09T05:42:46.249Z,18.52
2023-06-09T05:45:12.619Z,17.85
2023-06-09T05:47:38.966Z,20.67
2023-06-09T05:50:06.072Z,19.33
2023-06-09T05:54:58.817Z,19.20
2023-06-09T05:57:25.164Z,20.35
2023-06-09T05:59:51.612Z,18.45
2023-06-09T06:02:18.225Z,18.27
2023-06-09T06:04:44.717Z,22.52
2023-06-09T06:07:11.178Z,18.17
2023-06-09T06:09:37.633Z,20.08
2023-06-09T06:12:04.331Z,20.65
2023-06-09T06:14:30.647Z,19.08
2023-06-09T06:16:57.088Z,22.38
2023-06-09T06:19:24.024Z,19.10
2023-06-09T06:21:50.409Z,21.25
2023-06-09T06:24:16.945Z,18.58
2023-06-09T06:26:43.386Z,18.08
2023-06-09T06:29:09.736Z,19.60
2023-06-09T06:31:36.214Z,17.58
2023-06-09T06:34:04.253Z,17.55
2023-06-09T06:36:32.173Z,18.17
2023-06-09T06:38:58.535Z,17.73
2023-06-09T06:41:25.013Z,19.60
2023-06-09T06:43:51.451Z,18.98
2023-06-09T06:46:18.514Z,17.58
2023-06-09T06:48:45.050Z,17.40
2023-06-09T06:51:11.385Z,15.57
2023-06-09T06:53:38.012Z,19.83
2023-06-09T06:56:04.659Z,15.55
2023-06-09T06:58:31.073Z,11.70
2023-06-09T07:00:57.505Z,9.65
2023-06-09T07:03:24.373Z,12.88
2023-06-09T07:05:51.257Z,10.07
2023-06-09T07:08:17.606Z,10.32
2023-06-09T07:10:44.064Z,8.18
2023-06-09T07:13:10.467Z,10.65
2023-06-09T07:15:36.916Z,9.85
2023-06-09T07:18:03.689Z,10.90
2023-06-09T07:20:30.184Z,8.55
2023-06-09T07:22:56.515Z,10.13
2023-06-09T07:25:22.839Z,11.20
2023-06-09T07:27:49.245Z,9.40
2023-06-09T07:30:16.000Z,11.88
2023-06-09T07:32:42.397Z,11.77
2023-06-09T07:35:09.048Z,10.13
2023-06-09T07:37:35.378Z,11.57
2023-06-09T07:40:14.093Z,8.50
2023-06-09T07:42:45.193Z,10.07
2023-06-09T07:45:11.638Z,10.90
2023-06-09T07:47:38.179Z,9.88
2023-06-09T07:50:05.116Z,10.38
2023-06-09T07:52:31.528Z,11.38
2023-06-09T07:54:57.865Z,9.20
2023-06-09T07:57:24.338Z,12.02
2023-06-09T07:59:50.706Z,9.80
2023-06-09T08:02:17.032Z,9.93
2023-06-09T08:04:43.596Z,10.15
2023-06-09T08:07:10.205Z,8.77
2023-06-09T08:09:36.638Z,12.20
2023-06-09T08:12:04.947Z,9.25
2023-06-09T08:14:31.400Z,10.23
2023-06-09T08:16:57.821Z,9.95
2023-06-09T08:19:24.308Z,10.98
2023-06-09T08:21:50.635Z,10.20
2023-06-09T08:24:17.414Z,10.60
2023-06-09T08:26:43.790Z,9.38
2023-06-09T08:29:11.539Z,9.60
2023-06-09T08:31:38.076Z,11.27
2023-06-09T08:34:04.778Z,8.52
2023-06-09T08:36:31.232Z,8.38
2023-06-09T08:38:57.567Z,8.65
2023-06-09T08:41:26.698Z,9.90
2023-06-09T08:43:53.213Z,9.85
2023-06-09T08:46:21.649Z,10.77
2023-06-09T08:48:54.856Z,10.35
2023-06-09T08:51:21.279Z,10.15
2023-06-09T08:53:51.616Z,8.98
2023-06-09T08:56:18.511Z,8.40
2023-06-09T08:58:45.849Z,11.32
2023-06-09T09:01:12.731Z,10.63
2023-06-09T09:03:39.114Z,9.80
2023-06-09T09:06:05.712Z,7.47
2023-06-09T09:08:32.064Z,10.15
2023-06-09T09:10:58.694Z,9.55
2023-06-09T09:13:29.495Z,9.13
2023-06-09T09:15:56.371Z,10.40
2023-06-09T09:18:23.158Z,8.13
2023-06-09T09:20:49.573Z,8.73
2023-06-09T09:23:16.011Z,7.80
2023-06-09T09:25:42.774Z,9.48
2023-06-09T09:28:11.309Z,10.73
2023-06-09T09:30:49.602Z,9.95
2023-06-09T09:33:26.629Z,8.00
2023-06-09T09:35:55.089Z,10.02
2023-06-09T09:38:27.334Z,8.57
2023-06-09T09:40:58.386Z,8.60
2023-06-09T09:43:28.891Z,10.77
2023-06-09T09:45:57.229Z,8.52
2023-06-09T09:48:24.763Z,8.38
2023-06-09T09:50:53.200Z,10.52
2023-06-09T09:53:27.024Z,9.30
2023-06-09T09:55:55.405Z,7.75
2023-06-09T09:58:36.040Z,7.60
2023-06-09T10:01:07.285Z,11.07
2023-06-09T10:03:35.883Z,7.65
2023-06-09T10:06:04.778Z,8.00
2023-06-09T10:08:32.612Z,7.63
2023-06-09T10:10:59.457Z,8.20
2023-06-09T10:15:52.369Z,8.57
2023-06-09T10:18:19.659Z,8.05
2023-06-09T10:20:46.107Z,8.10
2023-06-09T10:23:12.686Z,8.02
2023-06-09T10:25:39.170Z,9.25
2023-06-09T10:28:06.187Z,7.57
2023-06-09T10:30:32.815Z,7.95
2023-06-09T10:33:16.754Z,6.65
2023-06-09T10:35:45.240Z,7.22
2023-06-09T10:38:29.108Z,6.32
2023-06-09T10:41:18.688Z,6.13
2023-06-09T10:44:01.068Z,7.28
2023-06-09T10:46:40.530Z,6.60
2023-06-09T10:49:07.139Z,7.25
2023-06-09T10:51:43.287Z,7.50
2023-06-09T10:54:09.590Z,7.50
2023-06-09T10:56:40.534Z,7.22
2023-06-09T10:59:06.909Z,8.15
2023-06-09T11:01:33.448Z,7.13
2023-06-09T11:03:59.937Z,7.47
2023-06-09T11:06:26.330Z,8.20
2023-06-09T11:09:01.672Z,7.43
2023-06-09T11:11:48.212Z,8.00
2023-06-09T11:14:56.694Z,7.30
2023-06-09T11:17:43.202Z,7.47
2023-06-09T11:20:10.135Z,8.25
2023-06-09T11:22:42.711Z,7.05
2023-06-09T11:25:40.866Z,7.25
2023-06-09T11:28:07.684Z,7.93
2023-06-09T11:30:34.363Z,7.80
2023-06-09T11:33:03.160Z,8.85
2023-06-09T11:35:29.660Z,6.90
2023-06-09T11:38:04.537Z,7.25
2023-06-09T11:40:32.543Z,7.30
2023-06-09T11:43:00.282Z,7.07
2023-06-09T11:45:31.726Z,7.00
2023-06-09T11:48:00.017Z,8.02
2023-06-09T11:50:35.998Z,7.18
2023-06-09T11:53:10.947Z,8.15
2023-06-09T11:55:38.177Z,7.22
2023-06-09T11:58:05.263Z,7.45
2023-06-09T12:00:33.008Z,6.70
2023-06-09T12:02:59.974Z,9.13
2023-06-09T12:05:27.005Z,7.80
2023-06-09T12:07:54.911Z,7.40
2023-06-09T12:10:23.068Z,7.90
2023-06-09T12:12:51.519Z,8.73
2023-06-09T12:15:19.977Z,7.40
2023-06-09T12:17:48.830Z,6.82
2023-06-09T12:20:27.485Z,7.30
2023-06-09T12:23:04.979Z,6.72
2023-06-09T12:25:35.339Z,6.35
2023-06-09T12:28:21.645Z,6.45
2023-06-09T12:30:49.901Z,8.77
2023-06-09T12:33:24.444Z,6.75
2023-06-09T12:35:56.018Z,7.65
2023-06-09T12:38:27.743Z,5.97
2023-06-09T12:40:55.086Z,5.32
2023-06-09T12:43:23.831Z,7.40
2023-06-09T12:45:53.785Z,6.47
2023-06-09T12:48:20.733Z,6.45
2023-06-09T12:50:47.244Z,6.85
2023-06-09T12:53:15.012Z,6.53
2023-06-09T12:55:42.301Z,5.55
2023-06-09T12:58:10.683Z,5.88
2023-06-09T13:00:38.831Z,6.93
2023-06-09T13:03:07.073Z,6.82
2023-06-09T13:05:33.531Z,8.02
2023-06-09T13:08:04.380Z,6.32
2023-06-09T13:10:31.471Z,5.47
2023-06-09T13:12:58.500Z,6.18
2023-06-09T13:15:26.475Z,6.93
2023-06-09T13:17:54.271Z,5.78
2023-06-09T13:20:21.427Z,5.65
2023-06-09T13:22:48.496Z,6.07
2023-06-09T13:25:15.011Z,6.15
2023-06-09T13:27:41.697Z,5.63
2023-06-09T13:30:09.602Z,6.10
2023-06-09T13:32:36.581Z,4.55
2023-06-09T13:35:03.186Z,5.07
2023-06-09T13:37:29.536Z,4.93
2023-06-09T13:39:55.858Z,4.30
2023-06-09T13:42:22.293Z,5.25
2023-06-09T13:44:48.627Z,5.88
2023-06-09T13:47:14.970Z,5.10
2023-06-09T13:49:41.505Z,4.90
2023-06-09T13:52:07.909Z,4.88
2023-06-09T13:54:34.243Z,5.05
2023-06-09T13:57:00.902Z,5.70
2023-06-09T13:59:27.255Z,4.93
2023-06-09T14:01:53.644Z,4.72
2023-06-09T14:04:20.269Z,4.65
2023-06-09T14:06:46.640Z,6.97
2023-06-09T14:09:12.960Z,5.38
2023-06-09T14:11:39.432Z,5.43
2023-06-09T14:14:08.937Z,6.65
2023-06-09T14:16:35.458Z,4.97
2023-06-09T14:19:01.970Z,6.32
2023-06-09T14:21:28.504Z,6.00
2023-06-09T14:23:54.909Z,5.55
2023-06-09T14:26:21.285Z,6.85
2023-06-09T14:28:47.602Z,5.78
2023-06-09T14:31:14.166Z,6.60
2023-06-09T14:33:40.531Z,5.50
2023-06-09T14:36:07.039Z,5.50
2023-06-09T14:38:33.415Z,5.82
2023-06-09T14:40:59.728Z,6.40
2023-06-09T14:43:26.054Z,6.85
2023-06-09T14:45:52.500Z,7.18
2023-06-09T14:48:18.941Z,6.28
2023-06-09T14:50:46.093Z,6.40
2023-06-09T14:53:12.605Z,5.88
2023-06-09T14:55:40.849Z,5.68
2023-06-09T14:58:08.770Z,8.45
2023-06-09T15:00:35.990Z,5.65
2023-06-09T15:03:03.251Z,6.78
2023-06-09T15:05:30.886Z,5.90
2023-06-09T15:07:59.425Z,5.35
2023-06-09T15:10:30.248Z,6.30
2023-06-09T15:12:57.718Z,5.95
2023-06-09T15:15:24.849Z,5.85
2023-06-09T15:17:51.403Z,5.75
2023-06-09T15:20:21.535Z,6.20
2023-06-09T15:22:48.509Z,5.50
2023-06-09T15:25:17.814Z,5.60
2023-06-09T15:27:46.965Z,5.95
2023-06-09T15:30:15.177Z,6.35
2023-06-09T15:32:41.671Z,7.07
2023-06-09T15:35:08.795Z,5.38
2023-06-09T15:37:35.344Z,5.43
2023-06-09T15:40:04.274Z,5.82
2023-06-09T15:42:31.033Z,6.43
2023-06-09T15:44:57.490Z,5.93
2023-06-09T15:47:23.856Z,6.85
2023-06-09T15:49:50.197Z,6.10
2023-06-09T15:52:16.602Z,6.38
2023-06-09T15:54:42.915Z,6.35
2023-06-09T15:57:09.294Z,7.20
2023-06-09T15:59:35.648Z,5.93
2023-06-09T16:02:02.007Z,6.63
2023-06-09T16:04:29.558Z,6.35
2023-06-09T16:06:55.881Z,6.72
2023-06-09T16:09:22.210Z,6.35
2023-06-09T16:11:48.638Z,7.57
2023-06-09T16:14:14.956Z,8.70
2023-06-09T16:16:41.305Z,7.65
2023-06-09T16:19:08.048Z,7.35
2023-06-09T16:21:34.421Z,8.63
2023-06-09T16:24:00.907Z,11.85
2023-06-09T16:26:27.420Z,8.18
2023-06-09T16:28:53.909Z,7.65
2023-06-09T16:31:20.688Z,8.40
2023-06-09T16:36:13.345Z,8.50
2023-06-09T16:38:39.899Z,6.88
2023-06-09T16:41:06.246Z,7.45
2023-06-09T16:43:32.617Z,6.95
2023-06-09T16:45:58.991Z,6.03
2023-06-09T16:48:25.463Z,7.35
2023-06-09T16:50:51.919Z,7.07
2023-06-09T16:53:18.295Z,7.13
2023-06-09T16:55:44.623Z,8.02
2023-06-09T16:58:11.050Z,6.82
2023-06-09T17:00:37.397Z,6.53
2023-06-09T17:03:04.216Z,6.63
2023-06-09T17:05:30.735Z,6.82
2023-06-09T17:07:57.180Z,8.18
2023-06-09T17:10:23.500Z,8.27
2023-06-09T17:12:50.582Z,7.10
2023-06-09T17:15:17.068Z,6.85
2023-06-09T17:17:43.517Z,6.78
2023-06-09T17:20:10.367Z,6.63
2023-06-09T17:22:36.736Z,6.20
2023-06-09T17:25:03.280Z,10.18
2023-06-09T17:27:29.672Z,6.90
2023-06-09T17:29:56.060Z,6.75
2023-06-09T17:32:22.419Z,6.65
2023-06-09T17:34:48.758Z,7.63
2023-06-09T17:37:15.106Z,11.50
2023-06-09T17:39:42.729Z,8.52
2023-06-09T17:42:09.315Z,7.20
2023-06-09T17:44:35.782Z,7.43
2023-06-09T17:49:28.460Z,8.45
2023-06-09T17:51:54.895Z,7.05
2023-06-09T17:54:21.247Z,7.55
2023-06-09T17:56:47.569Z,7.68
2023-06-09T17:59:13.948Z,7.28
2023-06-09T18:01:40.367Z,7.25
2023-06-09T18:04:06.801Z,7.82
2023-06-09T18:06:33.300Z,7.72
2023-06-09T18:08:59.798Z,6.90
2023-06-09T18:11:26.161Z,6.75
2023-06-09T18:13:52.521Z,6.25
2023-06-09T18:16:19.019Z,6.30
2023-06-09T18:18:45.736Z,7.40
2023-06-09T18:21:12.096Z,8.40
2023-06-09T18:23:38.504Z,6.55
2023-06-09T18:26:06.512Z,5.82
2023-06-09T18:28:32.834Z,6.70
2023-06-09T18:30:59.844Z,6.35
2023-06-09T18:33:26.239Z,6.18
2023-06-09T18:35:52.565Z,6.13
2023-06-09T18:38:19.007Z,5.50
2023-06-09T18:40:45.328Z,5.28
2023-06-09T18:43:11.668Z,5.80
2023-06-09T18:45:38.013Z,5.13
2023-06-09T18:48:04.432Z,4.78
2023-06-09T18:50:30.957Z,5.50
2023-06-09T18:52:57.293Z,5.07
2023-06-09T18:55:23.648Z,4.65
2023-06-09T18:57:50.101Z,6.20
2023-06-09T19:00:16.590Z,5.68
2023-06-09T19:02:43.126Z,6.47
2023-06-09T19:05:10.507Z,4.60
2023-06-09T19:07:37.094Z,4.60
2023-06-09T19:10:03.707Z,3.85
2023-06-09T19:12:30.055Z,4.40
2023-06-09T19:14:56.498Z,5.10
2023-06-09T19:17:22.877Z,4.55
2023-06-09T19:19:49.483Z,5.60
2023-06-09T19:22:15.907Z,4.55
2023-06-09T19:24:43.881Z,5.13
2023-06-09T19:27:10.431Z,4.22
2023-06-09T19:29:36.736Z,4.25
2023-06-09T19:32:03.326Z,5.00
2023-06-09T19:34:29.772Z,4.22
2023-06-09T19:36:56.114Z,4.93
2023-06-09T19:39:22.452Z,3.80
2023-06-09T19:41:49.124Z,4.60
2023-06-09T19:44:15.693Z,4.63
2023-06-09T19:46:42.174Z,3.90
2023-06-09T19:49:08.567Z,4.22
2023-06-09T19:51:34.928Z,4.43
2023-06-09T19:54:01.230Z,4.43
2023-06-09T19:56:27.558Z,4.30
2023-06-09T19:58:53.892Z,3.22
2023-06-09T20:01:20.413Z,4.03
2023-06-09T20:03:46.871Z,4.68
2023-06-09T20:06:13.212Z,3.72
2023-06-09T20:08:39.610Z,4.03
2023-06-09T20:11:05.940Z,4.30
2023-06-09T20:13:32.401Z,3.90
2023-06-09T20:15:58.840Z,5.03
2023-06-09T20:18:25.218Z,5.75
2023-06-09T20:20:51.663Z,5.10
2023-06-09T20:23:18.247Z,4.40
2023-06-09T20:25:44.667Z,4.45
2023-06-09T20:28:11.112Z,4.13
2023-06-09T20:30:37.525Z,4.60
2023-06-09T20:33:04.023Z,5.10
2023-06-09T20:35:30.429Z,5.13
2023-06-09T20:37:56.902Z,5.05
2023-06-09T20:40:23.244Z,4.65
2023-06-09T20:42:49.582Z,4.53
2023-06-09T20:45:16.083Z,3.83
2023-06-09T20:47:43.102Z,4.85
2023-06-09T20:52:36.051Z,5.53
2023-06-09T20:55:02.898Z,5.03
2023-06-09T20:57:29.331Z,6.03
2023-06-09T20:59:56.340Z,5.75
2023-06-09T21:02:22.756Z,6.93
2023-06-09T21:04:49.253Z,5.30
2023-06-09T21:07:15.695Z,6.88
2023-06-09T21:09:42.106Z,5.45
2023-06-09T21:12:09.232Z,6.88
2023-06-09T21:17:01.908Z,5.43
2023-06-09T21:19:28.402Z,4.70
2023-06-09T21:21:54.743Z,5.78
2023-06-09T21:24:21.179Z,5.53
2023-06-09T21:26:47.565Z,4.63
2023-06-09T21:29:14.039Z,6.38
2023-06-09T21:31:40.417Z,5.93
2023-06-09T21:34:06.817Z,5.38
2023-06-09T21:36:33.210Z,5.32
2023-06-09T21:38:59.800Z,6.57
2023-06-09T21:41:26.180Z,6.68
2023-06-09T21:43:52.530Z,8.48
2023-06-09T21:46:19.537Z,6.80
2023-06-09T21:48:45.875Z,7.57
2023-06-09T21:51:12.319Z,6.35
2023-06-09T21:53:38.672Z,7.90
2023-06-09T21:56:05.214Z,6.80
2023-06-09T21:58:31.586Z,6.88
2023-06-09T22:00:57.953Z,6.30
2023-06-09T22:03:24.315Z,6.35
2023-06-09T22:05:50.675Z,6.05
2023-06-09T22:08:17.046Z,7.38
2023-06-09T22:10:43.372Z,7.10
2023-06-09T22:13:09.687Z,7.45
2023-06-09T22:15:36.273Z,6.63
2023-06-09T22:18:02.631Z,8.18
2023-06-09T22:20:29.107Z,6.88
2023-06-09T22:22:55.498Z,7.45
2023-06-09T22:25:21.849Z,5.65
2023-06-09T22:27:48.407Z,6.65
2023-06-09T22:30:15.106Z,6.82
2023-06-09T22:32:41.666Z,6.30
2023-06-09T22:35:08.576Z,6.72
2023-06-09T22:37:35.104Z,6.75
2023-06-09T22:40:01.594Z,6.45
2023-06-09T22:42:27.946Z,6.65
2023-06-09T22:44:54.279Z,7.55
2023-06-09T22:47:20.839Z,5.78
2023-06-09T22:50:05.277Z,7.40
2023-06-09T22:52:31.939Z,7.18
2023-06-09T22:54:58.275Z,7.10
2023-06-09T22:57:24.673Z,7.22
2023-06-09T22:59:51.107Z,7.43
2023-06-09T23:02:17.472Z,9.25
2023-06-09T23:04:43.809Z,6.93
2023-06-09T23:07:10.269Z,6.60
2023-06-09T23:09:36.613Z,7.05
2023-06-09T23:12:03.255Z,8.25
2023-06-09T23:14:29.702Z,8.07
2023-06-09T23:16:56.034Z,10.65
2023-06-09T23:19:22.375Z,7.55
2023-06-09T23:21:48.805Z,7.75
2023-06-09T23:24:15.258Z,8.48
2023-06-09T23:26:41.883Z,8.25
2023-06-09T23:29:08.230Z,8.90
2023-06-09T23:31:34.732Z,8.60
2023-06-09T23:34:01.093Z,8.32
2023-06-09T23:36:27.453Z,7.25
2023-06-09T23:38:53.963Z,7.32
2023-06-09T23:41:20.343Z,7.28
2023-06-09T23:43:46.697Z,6.70
2023-06-09T23:46:13.293Z,7.57
2023-06-09T23:48:39.703Z,8.65
2023-06-09T23:51:06.036Z,8.90
2023-06-09T23:53:32.397Z,7.60
2023-06-09T23:55:58.757Z,9.35
2023-06-09T23:58:25.089Z,7.03
